sensor_id;sensor_type;location;lat;lon;timestamp;P1;durP1;ratioP1;P2;durP2;ratioP2
85218;SDS011;75606;40.152;44.490;2024-01-25T00:00:56;6.38;;;2.15;;
85218;SDS011;75606;40.152;44.490;2024-01-25T00:03:21;4.18;;;2.22;;
85218;SDS011;75606;40.152;44.490;2024-01-25T00:05:47;5.85;;;2.50;;
85218;SDS011;75606;40.152;44.490;2024-01-25T00:08:13;6.13;;;1.85;;
85218;SDS011;75606;40.152;44.490;2024-01-25T00:10:39;4.40;;;2.15;;
85218;SDS011;75606;40.152;44.490;2024-01-25T00:13:05;5.45;;;2.47;;
85218;SDS011;75606;40.152;44.490;2024-01-25T00:15:30;5.25;;;2.70;;
85218;SDS011;75606;40.152;44.490;2024-01-25T00:17:56;6.00;;;2.17;;
85218;SDS011;75606;40.152;44.490;2024-01-25T00:20:22;5.97;;;2.60;;
85218;SDS011;75606;40.152;44.490;2024-01-25T00:22:48;3.67;;;1.75;;
85218;SDS011;75606;40.152;44.490;2024-01-25T00:25:13;5.82;;;2.10;;
85218;SDS011;75606;40.152;44.490;2024-01-25T00:27:39;5.40;;;2.20;;
85218;SDS011;75606;40.152;44.490;2024-01-25T00:30:05;6.80;;;2.45;;
85218;SDS011;75606;40.152;44.490;2024-01-25T00:32:31;7.78;;;3.45;;
85218;SDS011;75606;40.152;44.490;2024-01-25T00:34:57;7.22;;;3.00;;
85218;SDS011;75606;40.152;44.490;2024-01-25T00:37:22;5.75;;;3.05;;
85218;SDS011;75606;40.152;44.490;2024-01-25T00:39:48;9.27;;;3.50;;
85218;SDS011;75606;40.152;44.490;2024-01-25T00:42:14;6.32;;;2.63;;
85218;SDS011;75606;40.152;44.490;2024-01-25T00:44:41;7.22;;;2.97;;
85218;SDS011;75606;40.152;44.490;2024-01-25T00:47:07;7.57;;;3.00;;
85218;SDS011;75606;40.152;44.490;2024-01-25T00:49:34;6.50;;;2.67;;
85218;SDS011;75606;40.152;44.490;2024-01-25T00:52:00;8.73;;;2.92;;
85218;SDS011;75606;40.152;44.490;2024-01-25T00:54:28;7.57;;;2.22;;
85218;SDS011;75606;40.152;44.490;2024-01-25T00:56:53;4.65;;;1.92;;
85218;SDS011;75606;40.152;44.490;2024-01-25T00:59:20;5.13;;;2.13;;
85218;SDS011;75606;40.152;44.490;2024-01-25T01:01:46;2.95;;;1.90;;
85218;SDS011;75606;40.152;44.490;2024-01-25T01:04:13;2.53;;;1.35;;
85218;SDS011;75606;40.152;44.490;2024-01-25T01:06:39;5.35;;;1.77;;
85218;SDS011;75606;40.152;44.490;2024-01-25T01:09:05;4.13;;;1.50;;
85218;SDS011;75606;40.152;44.490;2024-01-25T01:11:31;3.80;;;1.40;;
85218;SDS011;75606;40.152;44.490;2024-01-25T01:13:56;3.88;;;1.65;;
85218;SDS011;75606;40.152;44.490;2024-01-25T01:16:22;3.10;;;1.73;;
85218;SDS011;75606;40.152;44.490;2024-01-25T01:18:48;3.13;;;1.55;;
85218;SDS011;75606;40.152;44.490;2024-01-25T01:21:13;2.50;;;1.65;;
85218;SDS011;75606;40.152;44.490;2024-01-25T01:23:39;3.90;;;1.73;;
85218;SDS011;75606;40.152;44.490;2024-01-25T01:26:04;4.50;;;1.63;;
85218;SDS011;75606;40.152;44.490;2024-01-25T01:28:30;2.63;;;1.35;;
85218;SDS011;75606;40.152;44.490;2024-01-25T01:30:56;3.03;;;2.20;;
85218;SDS011;75606;40.152;44.490;2024-01-25T01:33:22;3.88;;;1.83;;
85218;SDS011;75606;40.152;44.490;2024-01-25T01:35:47;2.55;;;1.45;;
85218;SDS011;75606;40.152;44.490;2024-01-25T01:38:13;3.60;;;1.50;;
85218;SDS011;75606;40.152;44.490;2024-01-25T01:40:39;5.50;;;2.28;;
85218;SDS011;75606;40.152;44.490;2024-01-25T01:43:04;5.20;;;2.05;;
85218;SDS011;75606;40.152;44.490;2024-01-25T01:45:30;4.63;;;2.15;;
85218;SDS011;75606;40.152;44.490;2024-01-25T01:47:56;4.05;;;2.17;;
85218;SDS011;75606;40.152;44.490;2024-01-25T01:50:22;3.50;;;2.05;;
85218;SDS011;75606;40.152;44.490;2024-01-25T01:52:48;3.97;;;1.92;;
85218;SDS011;75606;40.152;44.490;2024-01-25T01:55:15;5.38;;;2.35;;
85218;SDS011;75606;40.152;44.490;2024-01-25T01:57:41;6.25;;;2.30;;
85218;SDS011;75606;40.152;44.490;2024-01-25T02:00:08;5.93;;;2.78;;
85218;SDS011;75606;40.152;44.490;2024-01-25T02:02:35;3.38;;;2.00;;
85218;SDS011;75606;40.152;44.490;2024-01-25T02:05:00;5.97;;;2.83;;
85218;SDS011;75606;40.152;44.490;2024-01-25T02:07:26;5.43;;;3.03;;
85218;SDS011;75606;40.152;44.490;2024-01-25T02:09:53;4.57;;;2.30;;
85218;SDS011;75606;40.152;44.490;2024-01-25T02:12:19;7.93;;;3.05;;
85218;SDS011;75606;40.152;44.490;2024-01-25T02:14:45;5.35;;;2.55;;
85218;SDS011;75606;40.152;44.490;2024-01-25T02:17:10;6.93;;;2.90;;
85218;SDS011;75606;40.152;44.490;2024-01-25T02:19:36;5.65;;;2.25;;
85218;SDS011;75606;40.152;44.490;2024-01-25T02:22:02;9.25;;;2.53;;
85218;SDS011;75606;40.152;44.490;2024-01-25T02:24:30;4.28;;;2.50;;
85218;SDS011;75606;40.152;44.490;2024-01-25T02:26:55;6.53;;;3.03;;
85218;SDS011;75606;40.152;44.490;2024-01-25T02:29:22;5.70;;;3.08;;
85218;SDS011;75606;40.152;44.490;2024-01-25T02:31:48;5.72;;;3.35;;
85218;SDS011;75606;40.152;44.490;2024-01-25T02:34:13;5.75;;;2.92;;
85218;SDS011;75606;40.152;44.490;2024-01-25T02:36:39;4.05;;;2.30;;
85218;SDS011;75606;40.152;44.490;2024-01-25T02:39:04;6.00;;;2.20;;
85218;SDS011;75606;40.152;44.490;2024-01-25T02:41:31;5.85;;;3.03;;
85218;SDS011;75606;40.152;44.490;2024-01-25T02:43:57;3.42;;;2.33;;
85218;SDS011;75606;40.152;44.490;2024-01-25T02:46:22;4.55;;;2.45;;
85218;SDS011;75606;40.152;44.490;2024-01-25T02:48:48;5.38;;;2.35;;
85218;SDS011;75606;40.152;44.490;2024-01-25T02:51:14;6.55;;;3.10;;
85218;SDS011;75606;40.152;44.490;2024-01-25T02:53:40;3.47;;;1.95;;
85218;SDS011;75606;40.152;44.490;2024-01-25T02:56:06;5.10;;;2.60;;
85218;SDS011;75606;40.152;44.490;2024-01-25T02:58:32;5.72;;;2.67;;
85218;SDS011;75606;40.152;44.490;2024-01-25T03:00:58;3.78;;;1.98;;
85218;SDS011;75606;40.152;44.490;2024-01-25T03:03:23;4.90;;;2.50;;
85218;SDS011;75606;40.152;44.490;2024-01-25T03:05:50;3.53;;;2.20;;
85218;SDS011;75606;40.152;44.490;2024-01-25T03:08:16;6.80;;;2.83;;
85218;SDS011;75606;40.152;44.490;2024-01-25T03:10:42;6.32;;;2.88;;
85218;SDS011;75606;40.152;44.490;2024-01-25T03:13:07;6.15;;;2.97;;
85218;SDS011;75606;40.152;44.490;2024-01-25T03:15:33;5.13;;;2.40;;
85218;SDS011;75606;40.152;44.490;2024-01-25T03:17:59;4.88;;;2.03;;
85218;SDS011;75606;40.152;44.490;2024-01-25T03:20:24;5.47;;;2.42;;
85218;SDS011;75606;40.152;44.490;2024-01-25T03:22:50;4.07;;;2.17;;
85218;SDS011;75606;40.152;44.490;2024-01-25T03:25:16;4.30;;;2.00;;
85218;SDS011;75606;40.152;44.490;2024-01-25T03:27:41;5.40;;;2.95;;
85218;SDS011;75606;40.152;44.490;2024-01-25T03:30:07;4.97;;;2.38;;
85218;SDS011;75606;40.152;44.490;2024-01-25T03:32:33;3.55;;;1.85;;
85218;SDS011;75606;40.152;44.490;2024-01-25T03:34:59;5.10;;;2.55;;
85218;SDS011;75606;40.152;44.490;2024-01-25T03:37:25;8.27;;;4.07;;
85218;SDS011;75606;40.152;44.490;2024-01-25T03:39:51;6.15;;;3.55;;
85218;SDS011;75606;40.152;44.490;2024-01-25T03:42:16;6.32;;;2.90;;
85218;SDS011;75606;40.152;44.490;2024-01-25T03:44:42;5.68;;;3.13;;
85218;SDS011;75606;40.152;44.490;2024-01-25T03:47:09;6.65;;;3.40;;
85218;SDS011;75606;40.152;44.490;2024-01-25T03:49:35;7.72;;;3.60;;
85218;SDS011;75606;40.152;44.490;2024-01-25T03:52:01;5.78;;;2.90;;
85218;SDS011;75606;40.152;44.490;2024-01-25T03:54:28;8.35;;;3.45;;
85218;SDS011;75606;40.152;44.490;2024-01-25T03:56:53;6.05;;;2.70;;
85218;SDS011;75606;40.152;44.490;2024-01-25T03:59:19;8.52;;;3.40;;
85218;SDS011;75606;40.152;44.490;2024-01-25T04:01:44;16.15;;;7.05;;
85218;SDS011;75606;40.152;44.490;2024-01-25T04:04:11;16.25;;;6.65;;
85218;SDS011;75606;40.152;44.490;2024-01-25T04:06:41;12.93;;;6.07;;
85218;SDS011;75606;40.152;44.490;2024-01-25T04:09:08;16.27;;;7.15;;
85218;SDS011;75606;40.152;44.490;2024-01-25T04:11:34;22.17;;;8.43;;
85218;SDS011;75606;40.152;44.490;2024-01-25T04:14:01;21.23;;;8.85;;
85218;SDS011;75606;40.152;44.490;2024-01-25T04:16:26;15.25;;;7.15;;
85218;SDS011;75606;40.152;44.490;2024-01-25T04:18:52;16.38;;;6.63;;
85218;SDS011;75606;40.152;44.490;2024-01-25T04:21:18;9.77;;;4.18;;
85218;SDS011;75606;40.152;44.490;2024-01-25T04:23:46;8.45;;;4.50;;
85218;SDS011;75606;40.152;44.490;2024-01-25T04:26:12;5.82;;;3.17;;
85218;SDS011;75606;40.152;44.490;2024-01-25T04:28:37;6.13;;;2.85;;
85218;SDS011;75606;40.152;44.490;2024-01-25T04:31:03;7.53;;;3.28;;
85218;SDS011;75606;40.152;44.490;2024-01-25T04:33:29;5.40;;;2.50;;
85218;SDS011;75606;40.152;44.490;2024-01-25T04:35:55;6.68;;;3.80;;
85218;SDS011;75606;40.152;44.490;2024-01-25T04:38:21;7.10;;;3.13;;
85218;SDS011;75606;40.152;44.490;2024-01-25T04:40:47;6.90;;;3.53;;
85218;SDS011;75606;40.152;44.490;2024-01-25T04:43:13;6.10;;;3.85;;
85218;SDS011;75606;40.152;44.490;2024-01-25T04:45:39;5.43;;;3.42;;
85218;SDS011;75606;40.152;44.490;2024-01-25T04:48:05;8.55;;;4.05;;
85218;SDS011;75606;40.152;44.490;2024-01-25T04:50:31;9.50;;;4.88;;
85218;SDS011;75606;40.152;44.490;2024-01-25T04:52:57;9.43;;;4.55;;
85218;SDS011;75606;40.152;44.490;2024-01-25T04:55:23;10.38;;;5.03;;
85218;SDS011;75606;40.152;44.490;2024-01-25T04:57:49;10.73;;;4.78;;
85218;SDS011;75606;40.152;44.490;2024-01-25T05:02:46;8.93;;;4.13;;
85218;SDS011;75606;40.152;44.490;2024-01-25T05:05:11;9.30;;;5.22;;
85218;SDS011;75606;40.152;44.490;2024-01-25T05:07:38;11.77;;;6.22;;
85218;SDS011;75606;40.152;44.490;2024-01-25T05:10:04;9.02;;;5.30;;
85218;SDS011;75606;40.152;44.490;2024-01-25T05:12:30;10.48;;;6.05;;
85218;SDS011;75606;40.152;44.490;2024-01-25T05:14:55;12.40;;;5.75;;
85218;SDS011;75606;40.152;44.490;2024-01-25T05:17:21;9.50;;;5.15;;
85218;SDS011;75606;40.152;44.490;2024-01-25T05:19:46;13.00;;;6.20;;
85218;SDS011;75606;40.152;44.490;2024-01-25T05:22:12;11.55;;;5.85;;
85218;SDS011;75606;40.152;44.490;2024-01-25T05:24:38;11.73;;;6.15;;
85218;SDS011;75606;40.152;44.490;2024-01-25T05:27:03;11.68;;;6.05;;
85218;SDS011;75606;40.152;44.490;2024-01-25T05:29:29;11.20;;;5.70;;
85218;SDS011;75606;40.152;44.490;2024-01-25T05:31:55;11.48;;;6.30;;
85218;SDS011;75606;40.152;44.490;2024-01-25T05:34:21;14.65;;;6.20;;
85218;SDS011;75606;40.152;44.490;2024-01-25T05:36:46;9.60;;;5.13;;
85218;SDS011;75606;40.152;44.490;2024-01-25T05:39:13;13.93;;;6.90;;
85218;SDS011;75606;40.152;44.490;2024-01-25T05:41:38;14.90;;;7.15;;
85218;SDS011;75606;40.152;44.490;2024-01-25T05:44:04;17.88;;;6.45;;
85218;SDS011;75606;40.152;44.490;2024-01-25T05:46:30;17.13;;;6.55;;
85218;SDS011;75606;40.152;44.490;2024-01-25T05:48:56;13.93;;;6.43;;
85218;SDS011;75606;40.152;44.490;2024-01-25T05:51:21;15.38;;;6.18;;
85218;SDS011;75606;40.152;44.490;2024-01-25T05:53:47;15.65;;;6.60;;
85218;SDS011;75606;40.152;44.490;2024-01-25T05:56:13;10.55;;;6.03;;
85218;SDS011;75606;40.152;44.490;2024-01-25T05:58:38;13.27;;;6.55;;
85218;SDS011;75606;40.152;44.490;2024-01-25T06:01:04;14.15;;;7.38;;
85218;SDS011;75606;40.152;44.490;2024-01-25T06:03:30;13.73;;;6.80;;
85218;SDS011;75606;40.152;44.490;2024-01-25T06:05:56;12.38;;;7.35;;
85218;SDS011;75606;40.152;44.490;2024-01-25T06:08:21;16.17;;;8.30;;
85218;SDS011;75606;40.152;44.490;2024-01-25T06:10:47;15.48;;;8.07;;
85218;SDS011;75606;40.152;44.490;2024-01-25T06:13:13;23.38;;;10.55;;
85218;SDS011;75606;40.152;44.490;2024-01-25T06:15:38;15.55;;;8.88;;
85218;SDS011;75606;40.152;44.490;2024-01-25T06:18:04;20.73;;;11.63;;
85218;SDS011;75606;40.152;44.490;2024-01-25T06:20:30;18.60;;;10.18;;
85218;SDS011;75606;40.152;44.490;2024-01-25T06:22:55;17.50;;;10.35;;
85218;SDS011;75606;40.152;44.490;2024-01-25T06:25:21;20.88;;;10.15;;
85218;SDS011;75606;40.152;44.490;2024-01-25T06:27:47;17.67;;;8.90;;
85218;SDS011;75606;40.152;44.490;2024-01-25T06:30:13;20.75;;;9.93;;
85218;SDS011;75606;40.152;44.490;2024-01-25T06:32:39;21.45;;;10.38;;
85218;SDS011;75606;40.152;44.490;2024-01-25T06:35:05;17.55;;;9.00;;
85218;SDS011;75606;40.152;44.490;2024-01-25T06:37:31;14.48;;;7.75;;
85218;SDS011;75606;40.152;44.490;2024-01-25T06:39:57;14.63;;;7.20;;
85218;SDS011;75606;40.152;44.490;2024-01-25T06:42:23;13.13;;;7.90;;
85218;SDS011;75606;40.152;44.490;2024-01-25T06:44:49;14.30;;;7.03;;
85218;SDS011;75606;40.152;44.490;2024-01-25T06:47:14;17.50;;;8.35;;
85218;SDS011;75606;40.152;44.490;2024-01-25T06:49:40;12.20;;;6.75;;
85218;SDS011;75606;40.152;44.490;2024-01-25T06:52:06;12.20;;;6.00;;
85218;SDS011;75606;40.152;44.490;2024-01-25T06:54:32;13.77;;;7.00;;
85218;SDS011;75606;40.152;44.490;2024-01-25T06:56:57;13.25;;;6.68;;
85218;SDS011;75606;40.152;44.490;2024-01-25T06:59:23;14.93;;;7.93;;
85218;SDS011;75606;40.152;44.490;2024-01-25T07:01:49;17.67;;;7.93;;
85218;SDS011;75606;40.152;44.490;2024-01-25T07:04:14;18.58;;;8.35;;
85218;SDS011;75606;40.152;44.490;2024-01-25T07:06:40;24.38;;;11.55;;
85218;SDS011;75606;40.152;44.490;2024-01-25T07:09:06;28.65;;;12.45;;
85218;SDS011;75606;40.152;44.490;2024-01-25T07:11:32;18.85;;;9.20;;
85218;SDS011;75606;40.152;44.490;2024-01-25T07:14:01;20.95;;;12.10;;
85218;SDS011;75606;40.152;44.490;2024-01-25T07:16:26;16.67;;;8.35;;
85218;SDS011;75606;40.152;44.490;2024-01-25T07:18:52;19.38;;;10.02;;
85218;SDS011;75606;40.152;44.490;2024-01-25T07:21:17;18.52;;;9.07;;
85218;SDS011;75606;40.152;44.490;2024-01-25T07:23:45;24.55;;;10.45;;
85218;SDS011;75606;40.152;44.490;2024-01-25T07:26:15;21.75;;;10.43;;
85218;SDS011;75606;40.152;44.490;2024-01-25T07:28:42;26.30;;;10.52;;
85218;SDS011;75606;40.152;44.490;2024-01-25T07:31:07;20.33;;;9.23;;
85218;SDS011;75606;40.152;44.490;2024-01-25T07:33:33;16.75;;;9.02;;
85218;SDS011;75606;40.152;44.490;2024-01-25T07:35:58;23.27;;;11.57;;
85218;SDS011;75606;40.152;44.490;2024-01-25T07:38:24;21.20;;;11.80;;
85218;SDS011;75606;40.152;44.490;2024-01-25T07:40:49;19.60;;;10.82;;
85218;SDS011;75606;40.152;44.490;2024-01-25T07:43:15;18.73;;;10.43;;
85218;SDS011;75606;40.152;44.490;2024-01-25T07:45:41;18.60;;;10.27;;
85218;SDS011;75606;40.152;44.490;2024-01-25T07:48:07;21.63;;;10.55;;
85218;SDS011;75606;40.152;44.490;2024-01-25T07:50:32;26.25;;;12.18;;
85218;SDS011;75606;40.152;44.490;2024-01-25T07:52:58;22.63;;;10.98;;
85218;SDS011;75606;40.152;44.490;2024-01-25T07:55:26;22.67;;;10.45;;
85218;SDS011;75606;40.152;44.490;2024-01-25T07:57:52;20.38;;;9.02;;
85218;SDS011;75606;40.152;44.490;2024-01-25T08:00:17;15.20;;;9.20;;
85218;SDS011;75606;40.152;44.490;2024-01-25T08:02:43;14.52;;;7.35;;
85218;SDS011;75606;40.152;44.490;2024-01-25T08:05:10;10.75;;;6.20;;
85218;SDS011;75606;40.152;44.490;2024-01-25T08:07:36;18.27;;;9.85;;
85218;SDS011;75606;40.152;44.490;2024-01-25T08:10:03;12.02;;;6.50;;
85218;SDS011;75606;40.152;44.490;2024-01-25T08:12:29;13.45;;;7.28;;
85218;SDS011;75606;40.152;44.490;2024-01-25T08:14:55;15.90;;;7.18;;
85218;SDS011;75606;40.152;44.490;2024-01-25T08:17:22;10.82;;;5.95;;
85218;SDS011;75606;40.152;44.490;2024-01-25T08:19:47;10.57;;;6.55;;
85218;SDS011;75606;40.152;44.490;2024-01-25T08:22:15;13.23;;;6.63;;
85218;SDS011;75606;40.152;44.490;2024-01-25T08:24:40;10.30;;;6.22;;
85218;SDS011;75606;40.152;44.490;2024-01-25T08:27:06;15.75;;;7.72;;
85218;SDS011;75606;40.152;44.490;2024-01-25T08:29:34;14.07;;;8.00;;
85218;SDS011;75606;40.152;44.490;2024-01-25T08:32:02;14.40;;;6.60;;
85218;SDS011;75606;40.152;44.490;2024-01-25T08:37:02;11.00;;;6.57;;
85218;SDS011;75606;40.152;44.490;2024-01-25T08:39:27;11.68;;;6.50;;
85218;SDS011;75606;40.152;44.490;2024-01-25T08:41:53;11.25;;;6.25;;
85218;SDS011;75606;40.152;44.490;2024-01-25T08:44:19;10.10;;;5.72;;
85218;SDS011;75606;40.152;44.490;2024-01-25T08:46:44;8.85;;;6.05;;
85218;SDS011;75606;40.152;44.490;2024-01-25T08:49:10;10.43;;;6.50;;
85218;SDS011;75606;40.152;44.490;2024-01-25T08:51:37;15.70;;;6.72;;
85218;SDS011;75606;40.152;44.490;2024-01-25T08:54:03;10.75;;;7.28;;
85218;SDS011;75606;40.152;44.490;2024-01-25T08:56:29;13.05;;;7.50;;
85218;SDS011;75606;40.152;44.490;2024-01-25T08:58:55;12.95;;;6.82;;
85218;SDS011;75606;40.152;44.490;2024-01-25T09:01:20;11.07;;;6.63;;
85218;SDS011;75606;40.152;44.490;2024-01-25T09:03:46;12.20;;;6.53;;
85218;SDS011;75606;40.152;44.490;2024-01-25T09:06:12;10.32;;;6.32;;
85218;SDS011;75606;40.152;44.490;2024-01-25T09:08:38;10.60;;;5.93;;
85218;SDS011;75606;40.152;44.490;2024-01-25T09:11:03;12.07;;;6.00;;
85218;SDS011;75606;40.152;44.490;2024-01-25T09:13:29;11.07;;;5.13;;
85218;SDS011;75606;40.152;44.490;2024-01-25T09:15:55;7.38;;;4.32;;
85218;SDS011;75606;40.152;44.490;2024-01-25T09:18:21;7.82;;;4.65;;
85218;SDS011;75606;40.152;44.490;2024-01-25T09:20:47;12.48;;;5.55;;
85218;SDS011;75606;40.152;44.490;2024-01-25T09:23:15;9.52;;;6.13;;
85218;SDS011;75606;40.152;44.490;2024-01-25T09:25:42;9.85;;;5.28;;
85218;SDS011;75606;40.152;44.490;2024-01-25T09:28:08;13.98;;;5.78;;
85218;SDS011;75606;40.152;44.490;2024-01-25T09:30:33;11.48;;;6.22;;
85218;SDS011;75606;40.152;44.490;2024-01-25T09:32:59;10.05;;;6.30;;
85218;SDS011;75606;40.152;44.490;2024-01-25T09:35:25;10.65;;;6.45;;
85218;SDS011;75606;40.152;44.490;2024-01-25T09:37:50;12.23;;;6.45;;
85218;SDS011;75606;40.152;44.490;2024-01-25T09:40:18;10.55;;;7.43;;
85218;SDS011;75606;40.152;44.490;2024-01-25T09:42:46;7.68;;;5.20;;
85218;SDS011;75606;40.152;44.490;2024-01-25T09:45:16;7.43;;;5.75;;
85218;SDS011;75606;40.152;44.490;2024-01-25T09:47:45;6.32;;;4.22;;
85218;SDS011;75606;40.152;44.490;2024-01-25T09:50:11;9.77;;;6.07;;
85218;SDS011;75606;40.152;44.490;2024-01-25T09:52:41;9.35;;;6.25;;
85218;SDS011;75606;40.152;44.490;2024-01-25T09:55:11;10.23;;;6.47;;
85218;SDS011;75606;40.152;44.490;2024-01-25T09:57:44;10.05;;;6.70;;
85218;SDS011;75606;40.152;44.490;2024-01-25T10:00:12;11.57;;;7.55;;
85218;SDS011;75606;40.152;44.490;2024-01-25T10:02:38;12.32;;;7.78;;
85218;SDS011;75606;40.152;44.490;2024-01-25T10:05:05;14.00;;;8.73;;
85218;SDS011;75606;40.152;44.490;2024-01-25T10:07:40;13.65;;;9.40;;
85218;SDS011;75606;40.152;44.490;2024-01-25T10:10:07;11.45;;;7.90;;
85218;SDS011;75606;40.152;44.490;2024-01-25T10:12:34;10.05;;;6.47;;
85218;SDS011;75606;40.152;44.490;2024-01-25T10:15:00;10.73;;;6.15;;
85218;SDS011;75606;40.152;44.490;2024-01-25T10:17:27;10.02;;;7.03;;
85218;SDS011;75606;40.152;44.490;2024-01-25T10:19:53;13.88;;;6.53;;
85218;SDS011;75606;40.152;44.490;2024-01-25T10:22:19;14.65;;;8.32;;
85218;SDS011;75606;40.152;44.490;2024-01-25T10:24:44;13.07;;;7.70;;
85218;SDS011;75606;40.152;44.490;2024-01-25T10:27:10;10.32;;;7.30;;
85218;SDS011;75606;40.152;44.490;2024-01-25T10:29:37;10.98;;;8.32;;
85218;SDS011;75606;40.152;44.490;2024-01-25T10:32:03;13.05;;;8.13;;
85218;SDS011;75606;40.152;44.490;2024-01-25T10:34:30;11.80;;;7.18;;
85218;SDS011;75606;40.152;44.490;2024-01-25T10:36:56;14.93;;;8.48;;
85218;SDS011;75606;40.152;44.490;2024-01-25T10:39:22;11.95;;;7.13;;
85218;SDS011;75606;40.152;44.490;2024-01-25T10:41:49;18.00;;;8.00;;
85218;SDS011;75606;40.152;44.490;2024-01-25T10:44:18;13.35;;;7.90;;
85218;SDS011;75606;40.152;44.490;2024-01-25T10:46:48;12.35;;;6.93;;
85218;SDS011;75606;40.152;44.490;2024-01-25T10:49:14;13.48;;;8.07;;
85218;SDS011;75606;40.152;44.490;2024-01-25T10:51:40;9.98;;;6.10;;
85218;SDS011;75606;40.152;44.490;2024-01-25T10:54:10;9.60;;;7.22;;
85218;SDS011;75606;40.152;44.490;2024-01-25T10:56:37;11.57;;;7.68;;
85218;SDS011;75606;40.152;44.490;2024-01-25T10:59:03;8.75;;;6.25;;
85218;SDS011;75606;40.152;44.490;2024-01-25T11:01:29;10.15;;;8.88;;
85218;SDS011;75606;40.152;44.490;2024-01-25T11:03:55;10.85;;;8.25;;
85218;SDS011;75606;40.152;44.490;2024-01-25T11:06:21;12.15;;;7.82;;
85218;SDS011;75606;40.152;44.490;2024-01-25T11:08:47;8.50;;;6.80;;
85218;SDS011;75606;40.152;44.490;2024-01-25T11:11:13;9.57;;;7.45;;
85218;SDS011;75606;40.152;44.490;2024-01-25T11:13:43;8.93;;;7.10;;
85218;SDS011;75606;40.152;44.490;2024-01-25T11:16:13;10.50;;;6.57;;
85218;SDS011;75606;40.152;44.490;2024-01-25T11:18:49;7.43;;;6.65;;
85218;SDS011;75606;40.152;44.490;2024-01-25T11:21:26;9.48;;;6.55;;
85218;SDS011;75606;40.152;44.490;2024-01-25T11:24:01;11.23;;;7.70;;
85218;SDS011;75606;40.152;44.490;2024-01-25T11:26:28;11.60;;;6.57;;
85218;SDS011;75606;40.152;44.490;2024-01-25T11:28:54;9.38;;;7.05;;
85218;SDS011;75606;40.152;44.490;2024-01-25T11:31:21;6.53;;;5.65;;
85218;SDS011;75606;40.152;44.490;2024-01-25T11:33:49;6.50;;;5.72;;
85218;SDS011;75606;40.152;44.490;2024-01-25T11:36:15;6.63;;;4.88;;
85218;SDS011;75606;40.152;44.490;2024-01-25T11:38:40;7.35;;;6.13;;
85218;SDS011;75606;40.152;44.490;2024-01-25T11:41:06;9.50;;;6.43;;
85218;SDS011;75606;40.152;44.490;2024-01-25T11:43:32;8.73;;;6.57;;
85218;SDS011;75606;40.152;44.490;2024-01-25T11:45:58;8.20;;;6.57;;
85218;SDS011;75606;40.152;44.490;2024-01-25T11:48:26;9.13;;;6.80;;
85218;SDS011;75606;40.152;44.490;2024-01-25T11:50:52;7.57;;;6.78;;
85218;SDS011;75606;40.152;44.490;2024-01-25T11:53:18;10.27;;;6.22;;
85218;SDS011;75606;40.152;44.490;2024-01-25T11:55:44;11.02;;;7.22;;
85218;SDS011;75606;40.152;44.490;2024-01-25T11:58:09;9.45;;;6.82;;
85218;SDS011;75606;40.152;44.490;2024-01-25T12:00:35;8.45;;;6.47;;
85218;SDS011;75606;40.152;44.490;2024-01-25T12:03:01;11.52;;;6.55;;
85218;SDS011;75606;40.152;44.490;2024-01-25T12:05:27;7.97;;;6.13;;
85218;SDS011;75606;40.152;44.490;2024-01-25T12:07:52;11.32;;;6.95;;
85218;SDS011;75606;40.152;44.490;2024-01-25T12:10:18;10.23;;;6.53;;
85218;SDS011;75606;40.152;44.490;2024-01-25T12:12:44;7.45;;;5.95;;
85218;SDS011;75606;40.152;44.490;2024-01-25T12:15:09;9.70;;;6.13;;
85218;SDS011;75606;40.152;44.490;2024-01-25T12:17:35;8.20;;;5.90;;
85218;SDS011;75606;40.152;44.490;2024-01-25T12:20:05;7.68;;;5.70;;
85218;SDS011;75606;40.152;44.490;2024-01-25T12:22:36;7.70;;;5.78;;
85218;SDS011;75606;40.152;44.490;2024-01-25T12:25:08;9.85;;;6.55;;
85218;SDS011;75606;40.152;44.490;2024-01-25T12:27:38;9.50;;;6.38;;
85218;SDS011;75606;40.152;44.490;2024-01-25T12:30:05;10.05;;;7.72;;
85218;SDS011;75606;40.152;44.490;2024-01-25T12:32:31;7.85;;;6.38;;
85218;SDS011;75606;40.152;44.490;2024-01-25T12:34:58;11.07;;;7.03;;
85218;SDS011;75606;40.152;44.490;2024-01-25T12:37:26;8.38;;;6.32;;
85218;SDS011;75606;40.152;44.490;2024-01-25T12:39:53;11.10;;;7.03;;
85218;SDS011;75606;40.152;44.490;2024-01-25T12:42:19;8.10;;;6.60;;
85218;SDS011;75606;40.152;44.490;2024-01-25T12:44:46;7.47;;;5.20;;
85218;SDS011;75606;40.152;44.490;2024-01-25T12:47:12;11.35;;;7.05;;
85218;SDS011;75606;40.152;44.490;2024-01-25T12:49:41;9.52;;;5.75;;
85218;SDS011;75606;40.152;44.490;2024-01-25T12:52:11;8.00;;;6.13;;
85218;SDS011;75606;40.152;44.490;2024-01-25T12:54:39;11.02;;;6.60;;
85218;SDS011;75606;40.152;44.490;2024-01-25T12:57:05;9.35;;;6.15;;
85218;SDS011;75606;40.152;44.490;2024-01-25T12:59:32;12.85;;;7.28;;
85218;SDS011;75606;40.152;44.490;2024-01-25T13:01:58;11.13;;;8.25;;
85218;SDS011;75606;40.152;44.490;2024-01-25T13:04:24;13.57;;;8.05;;
85218;SDS011;75606;40.152;44.490;2024-01-25T13:06:52;11.60;;;8.00;;
85218;SDS011;75606;40.152;44.490;2024-01-25T13:09:22;14.55;;;9.13;;
85218;SDS011;75606;40.152;44.490;2024-01-25T13:11:48;14.93;;;8.57;;
85218;SDS011;75606;40.152;44.490;2024-01-25T13:14:14;12.82;;;8.15;;
85218;SDS011;75606;40.152;44.490;2024-01-25T13:16:40;12.55;;;8.32;;
85218;SDS011;75606;40.152;44.490;2024-01-25T13:19:05;15.63;;;8.38;;
85218;SDS011;75606;40.152;44.490;2024-01-25T13:21:31;11.35;;;8.02;;
85218;SDS011;75606;40.152;44.490;2024-01-25T13:23:59;13.60;;;7.90;;
85218;SDS011;75606;40.152;44.490;2024-01-25T13:26:24;15.32;;;8.90;;
85218;SDS011;75606;40.152;44.490;2024-01-25T13:28:50;13.95;;;9.02;;
85218;SDS011;75606;40.152;44.490;2024-01-25T13:31:16;16.33;;;8.85;;
85218;SDS011;75606;40.152;44.490;2024-01-25T13:33:42;21.38;;;10.43;;
85218;SDS011;75606;40.152;44.490;2024-01-25T13:36:11;16.08;;;9.27;;
85218;SDS011;75606;40.152;44.490;2024-01-25T13:38:39;14.95;;;8.95;;
85218;SDS011;75606;40.152;44.490;2024-01-25T13:41:08;14.40;;;8.20;;
85218;SDS011;75606;40.152;44.490;2024-01-25T13:43:34;14.20;;;9.00;;
85218;SDS011;75606;40.152;44.490;2024-01-25T13:46:00;16.63;;;10.38;;
85218;SDS011;75606;40.152;44.490;2024-01-25T13:48:25;12.93;;;7.90;;
85218;SDS011;75606;40.152;44.490;2024-01-25T13:50:51;21.58;;;8.70;;
85218;SDS011;75606;40.152;44.490;2024-01-25T13:53:17;16.55;;;9.38;;
85218;SDS011;75606;40.152;44.490;2024-01-25T13:55:43;20.40;;;10.50;;
85218;SDS011;75606;40.152;44.490;2024-01-25T13:58:09;14.40;;;8.43;;
85218;SDS011;75606;40.152;44.490;2024-01-25T14:00:35;17.90;;;10.43;;
85218;SDS011;75606;40.152;44.490;2024-01-25T14:03:00;17.55;;;11.25;;
85218;SDS011;75606;40.152;44.490;2024-01-25T14:05:26;18.08;;;9.75;;
85218;SDS011;75606;40.152;44.490;2024-01-25T14:07:53;14.77;;;8.68;;
85218;SDS011;75606;40.152;44.490;2024-01-25T14:10:19;14.40;;;8.82;;
85218;SDS011;75606;40.152;44.490;2024-01-25T14:12:45;15.35;;;9.07;;
85218;SDS011;75606;40.152;44.490;2024-01-25T14:15:11;16.98;;;10.50;;
85218;SDS011;75606;40.152;44.490;2024-01-25T14:17:37;19.70;;;11.88;;
85218;SDS011;75606;40.152;44.490;2024-01-25T14:20:03;25.55;;;13.38;;
85218;SDS011;75606;40.152;44.490;2024-01-25T14:22:30;26.25;;;13.70;;
85218;SDS011;75606;40.152;44.490;2024-01-25T14:24:56;23.55;;;11.88;;